createdAt,value
2022-08-20T00:01:35.969Z,17.92
2022-08-20T00:04:02.761Z,18.92
2022-08-20T00:06:29.447Z,19.48
2022-08-20T00:08:56.138Z,20.77
2022-08-20T00:11:25.224Z,17.35
2022-08-20T00:13:55.535Z,16.02
2022-08-20T00:16:23.980Z,15.68
2022-08-20T00:18:51.471Z,16.88
2022-08-20T00:21:20.006Z,16.65
2022-08-20T00:23:49.443Z,13.73
2022-08-20T00:26:17.021Z,16.45
2022-08-20T00:28:43.737Z,14.85
2022-08-20T00:31:14.471Z,17.02
2022-08-20T00:33:41.237Z,17.67
2022-08-20T00:36:10.370Z,15.93
2022-08-20T00:38:38.304Z,15.10
2022-08-20T00:41:05.781Z,16.92
2022-08-20T00:43:57.274Z,12.40
2022-08-20T00:46:31.107Z,12.93
2022-08-20T00:48:59.723Z,15.25
2022-08-20T00:51:34.360Z,11.82
2022-08-20T00:54:11.018Z,14.23
2022-08-20T00:56:38.854Z,11.43
2022-08-20T00:59:11.821Z,11.45
2022-08-20T01:01:55.889Z,10.43
2022-08-20T01:04:25.609Z,10.90
2022-08-20T01:06:52.367Z,11.00
2022-08-20T01:09:33.306Z,11.05
2022-08-20T01:12:07.336Z,10.55
2022-08-20T01:14:34.078Z,10.18
2022-08-20T01:17:04.450Z,10.73
2022-08-20T01:19:35.616Z,10.80
2022-08-20T01:22:24.065Z,10.50
2022-08-20T01:24:52.630Z,11.70
2022-08-20T01:27:19.607Z,10.90
2022-08-20T01:29:46.901Z,10.38
2022-08-20T01:32:13.628Z,11.68
2022-08-20T01:34:40.372Z,12.85
2022-08-20T01:37:07.281Z,12.32
2022-08-20T01:39:36.091Z,11.75
2022-08-20T01:42:07.037Z,11.77
2022-08-20T01:44:36.524Z,12.73
2022-08-20T01:47:15.923Z,11.55
2022-08-20T01:49:46.344Z,11.63
2022-08-20T01:52:25.959Z,13.85
2022-08-20T01:54:53.430Z,12.98
2022-08-20T01:57:21.068Z,13.55
2022-08-20T01:59:48.366Z,15.25
2022-08-20T02:02:15.210Z,12.50
2022-08-20T02:04:42.567Z,12.05
2022-08-20T02:07:18.003Z,15.82
2022-08-20T02:09:45.961Z,12.80
2022-08-20T02:12:14.487Z,15.35
2022-08-20T02:14:44.531Z,13.85
2022-08-20T02:17:12.115Z,15.45
2022-08-20T02:19:44.884Z,15.07
2022-08-20T02:22:30.393Z,13.73
2022-08-20T02:24:57.199Z,13.88
2022-08-20T02:27:24.486Z,14.75
2022-08-20T02:29:52.511Z,17.17
2022-08-20T02:32:31.160Z,15.20
2022-08-20T02:35:03.942Z,15.80
2022-08-20T02:37:31.154Z,18.15
2022-08-20T02:39:57.987Z,16.73
2022-08-20T02:42:24.771Z,18.33
2022-08-20T02:44:51.876Z,16.42
2022-08-20T02:47:18.773Z,18.10
2022-08-20T02:49:45.600Z,19.63
2022-08-20T02:52:12.328Z,19.08
2022-08-20T02:54:39.165Z,19.75
2022-08-20T02:57:06.087Z,17.95
2022-08-20T02:59:33.737Z,18.67
2022-08-20T03:02:01.393Z,22.45
2022-08-20T03:04:29.553Z,21.80
2022-08-20T03:06:56.760Z,21.02
2022-08-20T03:09:23.499Z,25.05
2022-08-20T03:11:50.210Z,24.45
2022-08-20T03:14:17.070Z,21.77
2022-08-20T03:16:43.844Z,25.33
2022-08-20T03:19:10.647Z,24.40
2022-08-20T03:21:37.468Z,25.15
2022-08-20T03:24:04.489Z,24.90
2022-08-20T03:26:31.355Z,25.90
2022-08-20T03:28:58.089Z,26.92
2022-08-20T03:31:24.851Z,25.98
2022-08-20T03:33:53.455Z,25.42
2022-08-20T03:36:27.897Z,28.08
2022-08-20T03:38:57.630Z,25.90
2022-08-20T03:41:24.573Z,29.83
2022-08-20T03:43:51.640Z,28.33
2022-08-20T03:46:23.022Z,26.30
2022-08-20T03:48:50.073Z,29.33
2022-08-20T03:51:23.126Z,30.35
2022-08-20T03:53:49.844Z,30.30
2022-08-20T03:56:17.532Z,30.75
2022-08-20T03:58:44.479Z,29.27
2022-08-20T04:01:44.447Z,30.38
2022-08-20T04:03:58.795Z,29.08
2022-08-20T04:06:26.127Z,30.05
2022-08-20T04:08:54.228Z,30.70
2022-08-20T04:11:20.977Z,32.10
2022-08-20T04:13:47.706Z,30.38
2022-08-20T04:16:16.457Z,27.55
2022-08-20T04:19:02.046Z,29.55
2022-08-20T04:21:33.856Z,30.17
2022-08-20T04:24:02.550Z,31.30
2022-08-20T04:26:29.585Z,29.65
2022-08-20T04:28:56.346Z,31.92
2022-08-20T04:31:33.050Z,31.75
2022-08-20T04:34:01.881Z,31.02
2022-08-20T04:36:28.845Z,29.77
2022-08-20T04:38:55.741Z,30.50
2022-08-20T04:41:24.136Z,31.38
2022-08-20T04:43:56.038Z,30.92
2022-08-20T04:46:26.043Z,30.63
2022-08-20T04:48:53.257Z,35.80
2022-08-20T04:51:23.399Z,28.35
2022-08-20T04:53:53.778Z,29.15
2022-08-20T04:56:39.812Z,31.25
2022-08-20T04:59:07.658Z,29.30
2022-08-20T05:01:35.223Z,30.65
2022-08-20T05:04:02.049Z,27.20
2022-08-20T05:06:31.014Z,29.83
2022-08-20T05:08:59.211Z,32.97
2022-08-20T05:11:34.160Z,31.27
2022-08-20T05:14:07.840Z,30.77
2022-08-20T05:16:38.201Z,30.45
2022-08-20T05:19:06.698Z,30.92
2022-08-20T05:21:34.139Z,33.10
2022-08-20T05:24:01.298Z,27.55
2022-08-20T05:26:28.294Z,31.88
2022-08-20T05:28:59.090Z,28.42
2022-08-20T05:31:30.852Z,26.73
2022-08-20T05:34:10.049Z,25.25
2022-08-20T05:36:39.861Z,26.52
2022-08-20T05:39:06.637Z,28.15
2022-08-20T05:41:33.478Z,26.40
2022-08-20T05:44:03.514Z,26.50
2022-08-20T05:46:31.875Z,25.52
2022-08-20T05:49:01.794Z,25.95
2022-08-20T05:51:29.812Z,26.88
2022-08-20T05:53:58.243Z,26.05
2022-08-20T05:56:27.285Z,28.88
2022-08-20T05:58:54.611Z,26.15
2022-08-20T06:01:21.815Z,28.80
2022-08-20T06:04:07.123Z,26.73
2022-08-20T06:06:44.260Z,28.90
2022-08-20T06:09:12.227Z,27.85
2022-08-20T06:11:39.356Z,25.73
2022-08-20T06:14:06.072Z,28.92
2022-08-20T06:16:32.857Z,29.17
2022-08-20T06:19:00.018Z,29.23
2022-08-20T06:21:29.801Z,26.38
2022-08-20T06:23:59.007Z,28.90
2022-08-20T06:26:30.425Z,30.83
2022-08-20T06:28:58.691Z,30.35
2022-08-20T06:31:25.416Z,30.95
2022-08-20T06:33:52.366Z,26.80
2022-08-20T06:36:19.499Z,31.33
2022-08-20T06:38:46.763Z,32.15
2022-08-20T06:41:14.213Z,29.77
2022-08-20T06:43:40.992Z,30.48
2022-08-20T06:46:07.984Z,31.17
2022-08-20T06:48:34.998Z,30.83
2022-08-20T06:51:01.898Z,28.58
2022-08-20T06:53:29.295Z,35.22
2022-08-20T06:55:58.996Z,30.98
2022-08-20T06:58:36.782Z,30.33
2022-08-20T07:01:11.109Z,29.77
2022-08-20T07:03:54.385Z,32.10
2022-08-20T07:06:22.211Z,32.65
2022-08-20T07:08:48.961Z,30.83
2022-08-20T07:11:15.748Z,30.25
2022-08-20T07:13:42.561Z,31.55
2022-08-20T07:16:09.545Z,30.90
2022-08-20T07:18:36.557Z,31.90
2022-08-20T07:21:03.801Z,32.28
2022-08-20T07:23:31.858Z,29.80
2022-08-20T07:25:58.881Z,31.67
2022-08-20T07:28:29.032Z,31.17
2022-08-20T07:31:15.896Z,30.52
2022-08-20T07:33:44.519Z,35.00
2022-08-20T07:36:12.426Z,31.95
2022-08-20T07:38:39.179Z,34.83
2022-08-20T07:41:13.630Z,36.28
2022-08-20T07:43:41.820Z,32.22
2022-08-20T07:46:09.865Z,37.08
2022-08-20T07:48:46.298Z,36.20
2022-08-20T07:51:14.527Z,38.13
2022-08-20T07:53:41.660Z,36.50
2022-08-20T07:56:11.663Z,38.45
2022-08-20T07:58:42.394Z,37.08
2022-08-20T08:01:11.670Z,39.95
2022-08-20T08:03:40.928Z,37.83
2022-08-20T08:06:19.625Z,37.40
2022-08-20T08:08:59.104Z,37.72
2022-08-20T08:11:25.942Z,37.88
2022-08-20T08:13:52.732Z,42.83
2022-08-20T08:16:20.309Z,38.75
2022-08-20T08:18:50.215Z,44.60
2022-08-20T08:21:18.470Z,42.90
2022-08-20T08:23:45.665Z,41.45
2022-08-20T08:26:16.241Z,39.38
2022-08-20T08:28:46.815Z,42.95
2022-08-20T08:31:14.990Z,40.20
2022-08-20T08:33:42.316Z,37.70
2022-08-20T08:36:14.290Z,37.72
2022-08-20T08:38:44.380Z,39.90
2022-08-20T08:41:32.090Z,42.05
2022-08-20T08:44:06.986Z,39.40
2022-08-20T08:46:44.502Z,40.03
2022-08-20T08:49:15.188Z,43.60
2022-08-20T08:51:46.443Z,40.35
2022-08-20T08:54:17.554Z,38.63
2022-08-20T08:56:49.797Z,35.35
2022-08-20T08:59:17.083Z,36.05
2022-08-20T09:01:56.292Z,38.75
2022-08-20T09:04:31.845Z,31.75
2022-08-20T09:06:59.691Z,31.05
2022-08-20T09:09:29.514Z,34.88
2022-08-20T09:12:04.478Z,31.65
2022-08-20T09:14:31.363Z,34.40
2022-08-20T09:16:58.300Z,30.17
2022-08-20T09:19:25.318Z,27.23
2022-08-20T09:21:52.149Z,31.13
2022-08-20T09:24:18.943Z,27.73
2022-08-20T09:26:46.171Z,31.83
2022-08-20T09:29:12.988Z,27.60
2022-08-20T09:31:39.772Z,27.98
2022-08-20T09:34:07.253Z,30.15
2022-08-20T09:36:34.027Z,26.95
2022-08-20T09:39:02.848Z,26.40
2022-08-20T09:41:31.216Z,22.08
2022-08-20T09:44:00.699Z,24.45
2022-08-20T09:46:27.722Z,23.65
2022-08-20T09:48:55.196Z,23.17
2022-08-20T09:51:22.243Z,26.25
2022-08-20T09:53:49.246Z,24.27
2022-08-20T09:56:16.417Z,20.63
2022-08-20T09:58:49.850Z,23.63
2022-08-20T10:01:18.733Z,18.63
2022-08-20T10:03:48.965Z,19.13
2022-08-20T10:06:17.973Z,20.50
2022-08-20T10:08:44.694Z,19.50
2022-08-20T10:11:11.692Z,17.02
2022-08-20T10:13:38.512Z,17.08
2022-08-20T10:16:05.506Z,18.00
2022-08-20T10:18:32.376Z,13.73
2022-08-20T10:20:59.207Z,14.02
2022-08-20T10:23:26.046Z,13.30
2022-08-20T10:25:52.844Z,14.48
2022-08-20T10:28:19.641Z,12.45
2022-08-20T10:30:47.167Z,12.02
2022-08-20T10:33:14.049Z,11.75
2022-08-20T10:35:40.947Z,10.18
2022-08-20T10:38:07.848Z,9.85
2022-08-20T10:40:34.675Z,10.45
2022-08-20T10:43:02.062Z,9.38
2022-08-20T10:45:28.936Z,11.77
2022-08-20T10:47:59.422Z,7.85
2022-08-20T10:50:30.585Z,6.85
2022-08-20T10:52:58.327Z,8.88
2022-08-20T10:55:25.259Z,10.30
2022-08-20T10:57:52.317Z,7.80
2022-08-20T11:00:19.456Z,7.50
2022-08-20T11:02:46.313Z,7.05
2022-08-20T11:05:13.173Z,8.48
2022-08-20T11:07:49.826Z,9.48
2022-08-20T11:10:25.182Z,7.03
2022-08-20T11:12:52.068Z,8.05
2022-08-20T11:15:18.860Z,10.63
2022-08-20T11:17:46.100Z,8.05
2022-08-20T11:20:15.060Z,11.45
2022-08-20T11:22:41.876Z,7.63
2022-08-20T11:25:09.601Z,6.68
2022-08-20T11:27:45.255Z,9.95
2022-08-20T11:30:20.891Z,8.65
2022-08-20T11:32:47.580Z,6.00
2022-08-20T11:35:41.114Z,5.97
2022-08-20T11:38:01.138Z,5.50
2022-08-20T11:40:29.458Z,7.28
2022-08-20T11:43:14.198Z,7.68
2022-08-20T11:45:42.292Z,7.30
2022-08-20T11:48:09.056Z,5.75
2022-08-20T11:50:35.766Z,7.95
2022-08-20T11:53:02.490Z,6.20
2022-08-20T11:55:30.208Z,5.50
2022-08-20T11:58:00.305Z,8.13
2022-08-20T12:00:33.167Z,7.97
2022-08-20T12:03:05.479Z,8.13
2022-08-20T12:05:35.367Z,6.45
2022-08-20T12:08:02.384Z,6.35
2022-08-20T12:10:29.849Z,6.32
2022-08-20T12:12:56.883Z,5.88
2022-08-20T12:15:24.219Z,5.85
2022-08-20T12:17:51.115Z,5.95
2022-08-20T12:20:18.034Z,6.90
2022-08-20T12:22:44.815Z,7.68
2022-08-20T12:25:14.945Z,4.57
2022-08-20T12:27:42.455Z,7.15
2022-08-20T12:30:15.605Z,6.35
2022-08-20T12:32:42.714Z,5.95
2022-08-20T12:35:10.722Z,7.05
2022-08-20T12:37:37.873Z,9.95
2022-08-20T12:40:08.201Z,8.40
2022-08-20T12:42:35.142Z,7.95
2022-08-20T12:45:02.314Z,7.75
2022-08-20T12:47:34.444Z,5.65
2022-08-20T12:50:05.050Z,6.68
2022-08-20T12:52:32.637Z,7.38
2022-08-20T12:54:59.682Z,6.28
2022-08-20T12:57:32.246Z,8.25
2022-08-20T13:00:01.692Z,6.55
2022-08-20T13:02:30.542Z,6.32
2022-08-20T13:05:00.120Z,7.28
2022-08-20T13:07:29.350Z,5.57
2022-08-20T13:09:56.182Z,6.80
2022-08-20T13:12:23.091Z,7.72
2022-08-20T13:14:49.777Z,9.25
2022-08-20T13:17:18.370Z,7.70
2022-08-20T13:19:46.211Z,8.32
2022-08-20T13:22:14.128Z,8.60
2022-08-20T13:24:41.142Z,8.23
2022-08-20T13:27:09.378Z,7.60
2022-08-20T13:29:36.242Z,8.23
2022-08-20T13:32:03.171Z,8.02
2022-08-20T13:34:30.194Z,8.52
2022-08-20T13:36:57.447Z,8.55
2022-08-20T13:39:24.562Z,9.00
2022-08-20T13:41:51.249Z,10.45
2022-08-20T13:44:18.539Z,12.63
2022-08-20T13:46:45.359Z,10.85
2022-08-20T13:49:12.241Z,9.95
2022-08-20T13:51:39.107Z,11.98
2022-08-20T13:54:05.854Z,13.27
2022-08-20T13:56:37.511Z,10.52
2022-08-20T13:59:04.264Z,11.52
2022-08-20T14:01:31.284Z,13.23
2022-08-20T14:03:58.528Z,14.65
2022-08-20T14:06:26.625Z,11.25
2022-08-20T14:08:53.435Z,12.35
2022-08-20T14:11:20.731Z,17.98
2022-08-20T14:13:48.081Z,17.42
2022-08-20T14:16:21.236Z,14.13
2022-08-20T14:18:56.382Z,13.80
2022-08-20T14:21:23.403Z,15.02
2022-08-20T14:23:50.112Z,12.93
2022-08-20T14:26:16.970Z,13.25
2022-08-20T14:28:43.804Z,14.43
2022-08-20T14:31:10.544Z,12.98
2022-08-20T14:33:39.314Z,13.60
2022-08-20T14:36:09.501Z,14.70
2022-08-20T14:38:37.833Z,15.63
2022-08-20T14:41:04.657Z,18.05
2022-08-20T14:43:31.595Z,14.02
2022-08-20T14:45:58.454Z,14.02
2022-08-20T14:48:28.159Z,15.10
2022-08-20T14:50:56.044Z,17.92
2022-08-20T14:53:22.882Z,17.20
2022-08-20T14:55:49.715Z,15.25
2022-08-20T14:58:17.575Z,12.63
2022-08-20T15:00:45.170Z,12.02
2022-08-20T15:03:13.527Z,11.15
2022-08-20T15:05:40.734Z,13.95
2022-08-20T15:08:10.583Z,10.73
2022-08-20T15:10:39.017Z,14.57
2022-08-20T15:13:05.811Z,15.05
2022-08-20T15:15:33.756Z,16.35
2022-08-20T15:18:01.116Z,14.85
2022-08-20T15:20:31.460Z,13.38
2022-08-20T15:22:58.793Z,13.43
2022-08-20T15:25:36.770Z,13.82
2022-08-20T15:28:06.292Z,14.10
2022-08-20T15:30:33.585Z,13.18
2022-08-20T15:33:00.891Z,15.70
2022-08-20T15:35:28.598Z,13.13
2022-08-20T15:37:57.279Z,15.57
2022-08-20T15:40:28.550Z,12.77
2022-08-20T15:42:59.515Z,15.40
2022-08-20T15:45:27.224Z,15.07
2022-08-20T15:47:55.585Z,14.93
2022-08-20T15:50:25.029Z,16.15
2022-08-20T15:52:52.057Z,13.73
2022-08-20T15:55:18.842Z,13.77
2022-08-20T15:58:08.770Z,12.50
2022-08-20T16:00:53.678Z,14.30
2022-08-20T16:04:06.377Z,17.15
2022-08-20T16:06:33.593Z,12.57
2022-08-20T16:09:20.354Z,11.95
2022-08-20T16:12:05.694Z,13.85
2022-08-20T16:14:39.740Z,12.90
2022-08-20T16:17:10.278Z,13.85
2022-08-20T16:19:58.319Z,13.93
2022-08-20T16:22:27.686Z,14.50
2022-08-20T16:24:54.628Z,13.25
2022-08-20T16:27:36.926Z,13.23
2022-08-20T16:30:08.808Z,13.93
2022-08-20T16:32:46.077Z,12.65
2022-08-20T16:35:16.198Z,11.88
2022-08-20T16:37:55.799Z,14.13
2022-08-20T16:40:29.881Z,12.63
2022-08-20T16:42:59.292Z,10.77
2022-08-20T16:45:30.431Z,13.23
2022-08-20T16:48:01.963Z,15.20
2022-08-20T16:50:37.697Z,13.10
2022-08-20T16:53:04.659Z,13.80
2022-08-20T16:55:31.632Z,13.93
2022-08-20T16:57:58.525Z,16.08
2022-08-20T17:00:35.466Z,12.55
2022-08-20T17:03:34.945Z,15.23
2022-08-20T17:06:27.513Z,14.18
2022-08-20T17:08:55.082Z,12.93
2022-08-20T17:11:33.311Z,13.82
2022-08-20T17:14:09.306Z,13.30
2022-08-20T17:16:39.984Z,22.73
2022-08-20T17:19:12.879Z,13.13
2022-08-20T17:21:40.654Z,12.10
2022-08-20T17:24:18.383Z,15.25
2022-08-20T17:26:50.613Z,13.07
2022-08-20T17:29:23.908Z,12.63
2022-08-20T17:31:56.293Z,14.32
2022-08-20T17:34:44.764Z,14.95
2022-08-20T17:37:22.599Z,13.43
2022-08-20T17:39:54.256Z,15.45
2022-08-20T17:42:25.835Z,12.80
2022-08-20T17:45:05.811Z,13.63
2022-08-20T17:47:35.072Z,14.35
2022-08-20T17:50:13.354Z,12.65
2022-08-20T17:52:45.763Z,15.73
2022-08-20T17:55:12.979Z,13.63
2022-08-20T17:57:44.053Z,17.25
2022-08-20T18:00:15.123Z,12.50
2022-08-20T18:02:42.969Z,10.50
2022-08-20T18:05:15.015Z,9.23
2022-08-20T18:07:53.109Z,5.70
2022-08-20T18:10:26.582Z,5.22
2022-08-20T18:13:15.322Z,6.47
2022-08-20T18:15:50.795Z,3.47
2022-08-20T18:18:23.715Z,3.80
2022-08-20T18:21:15.531Z,6.30
2022-08-20T18:24:06.483Z,4.20
2022-08-20T18:26:42.253Z,3.65
2022-08-20T18:29:11.878Z,2.85
2022-08-20T18:31:49.835Z,5.07
2022-08-20T18:34:20.100Z,3.90
2022-08-20T18:36:58.395Z,3.58
2022-08-20T18:39:31.004Z,5.00
2022-08-20T18:42:04.051Z,4.80
2022-08-20T18:44:44.411Z,3.83
2022-08-20T18:47:33.227Z,5.55
2022-08-20T18:50:16.867Z,4.68
2022-08-20T18:53:05.945Z,5.72
2022-08-20T18:55:40.842Z,4.57
2022-08-20T18:58:13.333Z,5.18
2022-08-20T19:00:48.728Z,7.35
2022-08-20T19:03:23.612Z,4.50
2022-08-20T19:06:25.010Z,4.60
2022-08-20T19:09:15.103Z,4.05
2022-08-20T19:12:19.720Z,4.30
2022-08-20T19:15:07.052Z,4.72
2022-08-20T19:17:51.919Z,4.05
2022-08-20T19:20:25.994Z,4.57
2022-08-20T19:22:54.589Z,3.80
2022-08-20T19:25:30.688Z,5.65
2022-08-20T19:28:20.257Z,6.95
2022-08-20T19:30:47.055Z,5.05
2022-08-20T19:33:32.734Z,4.25
2022-08-20T19:36:27.596Z,5.18
2022-08-20T19:38:57.513Z,7.35
2022-08-20T19:41:38.912Z,4.90
2022-08-20T19:44:05.667Z,4.75
2022-08-20T19:46:43.113Z,4.18
2022-08-20T19:49:35.768Z,6.78
2022-08-20T19:52:41.971Z,6.57
2022-08-20T19:55:24.293Z,6.57
2022-08-20T19:57:56.945Z,4.95
2022-08-20T20:00:26.068Z,4.93
2022-08-20T20:02:52.836Z,5.88
2022-08-20T20:05:19.501Z,4.43
2022-08-20T20:07:49.205Z,8.10
2022-08-20T20:10:32.322Z,6.43
2022-08-20T20:13:07.824Z,8.50
2022-08-20T20:15:34.774Z,8.27
2022-08-20T20:18:01.785Z,7.38
2022-08-20T20:20:31.293Z,7.57
2022-08-20T20:23:05.863Z,8.13
2022-08-20T20:25:34.176Z,11.40
2022-08-20T20:28:31.541Z,8.35
2022-08-20T20:31:12.466Z,6.72
2022-08-20T20:33:44.101Z,7.38
2022-08-20T20:36:18.878Z,7.53
2022-08-20T20:39:05.692Z,6.95
2022-08-20T20:41:33.342Z,5.95
2022-08-20T20:44:07.890Z,6.32
2022-08-20T20:46:35.531Z,5.80
2022-08-20T20:49:19.199Z,5.50
2022-08-20T20:51:54.593Z,6.22
2022-08-20T20:54:26.178Z,5.32
2022-08-20T20:56:59.790Z,7.05
2022-08-20T20:59:27.219Z,5.78
2022-08-20T21:01:53.960Z,6.90
2022-08-20T21:04:22.458Z,5.68
2022-08-20T21:06:50.179Z,7.32
2022-08-20T21:09:17.499Z,6.03
2022-08-20T21:11:44.507Z,6.43
2022-08-20T21:14:11.345Z,8.18
2022-08-20T21:16:38.041Z,7.03
2022-08-20T21:19:06.787Z,7.50
2022-08-20T21:21:33.923Z,10.95
2022-08-20T21:24:00.766Z,6.35
2022-08-20T21:26:27.976Z,6.75
2022-08-20T21:28:54.884Z,6.72
2022-08-20T21:31:21.913Z,6.13
2022-08-20T21:33:48.620Z,7.03
2022-08-20T21:36:15.563Z,7.40
2022-08-20T21:38:42.316Z,7.30
2022-08-20T21:41:09.158Z,5.00
2022-08-20T21:43:35.859Z,6.25
2022-08-20T21:46:04.247Z,5.53
2022-08-20T21:48:32.355Z,6.90
2022-08-20T21:50:59.153Z,6.80
2022-08-20T21:53:25.964Z,7.05
2022-08-20T21:55:53.006Z,6.47
2022-08-20T21:58:20.768Z,5.75
2022-08-20T22:00:56.884Z,7.38
2022-08-20T22:03:26.339Z,9.10
2022-08-20T22:05:54.339Z,6.40
2022-08-20T22:08:22.061Z,8.65
2022-08-20T22:10:54.262Z,6.60
2022-08-20T22:13:22.239Z,6.20
2022-08-20T22:15:49.065Z,7.18
2022-08-20T22:18:16.976Z,6.03
2022-08-20T22:20:44.439Z,6.25
2022-08-20T22:23:12.138Z,6.50
2022-08-20T22:25:39.155Z,5.75
2022-08-20T22:28:05.911Z,6.07
2022-08-20T22:30:33.235Z,4.95
2022-08-20T22:33:15.117Z,4.93
2022-08-20T22:35:45.758Z,11.18
2022-08-20T22:38:12.715Z,5.93
2022-08-20T22:40:39.446Z,4.97
2022-08-20T22:43:06.269Z,5.70
2022-08-20T22:45:33.153Z,6.07
2022-08-20T22:48:00.122Z,5.63
2022-08-20T22:50:26.842Z,8.95
2022-08-20T22:52:53.924Z,5.20
2022-08-20T22:55:21.175Z,6.07
2022-08-20T22:57:47.957Z,12.40
2022-08-20T23:00:17.142Z,5.53
2022-08-20T23:02:45.230Z,5.78
2022-08-20T23:05:14.143Z,5.90
2022-08-20T23:07:41.340Z,5.70
2022-08-20T23:10:08.805Z,8.88
2022-08-20T23:12:36.122Z,5.72
2022-08-20T23:15:03.207Z,5.80
2022-08-20T23:17:29.922Z,7.25
2022-08-20T23:19:56.682Z,6.28
2022-08-20T23:22:23.578Z,6.43
2022-08-20T23:24:50.421Z,4.82
2022-08-20T23:27:20.462Z,8.02
2022-08-20T23:29:47.823Z,8.73
2022-08-20T23:32:14.536Z,6.00
2022-08-20T23:34:41.600Z,6.68
2022-08-20T23:37:09.233Z,6.30
2022-08-20T23:39:36.082Z,5.57
2022-08-20T23:42:04.020Z,10.15
2022-08-20T23:44:30.765Z,11.57
2022-08-20T23:46:59.765Z,9.73
2022-08-20T23:49:27.453Z,8.85
2022-08-20T23:51:54.223Z,6.28
2022-08-20T23:54:21.139Z,7.65
2022-08-20T23:56:47.883Z,6.95
2022-08-20T23:59:14.589Z,5.70
